If you wish to contribute or participate in the discussions about articles you are invited to join SKYbrary as a registered user

 Actions

Birjand International Airport

From SKYbrary Wiki

OIMB
Airport
ICAO: OIMB – IATA: XBJ
Summary
Name Birjand International Airport
Region Middle East
Territory Iran IR.gif
Location Birjand, South Khorasan
Serving Birjand
Elevation 1,509.37 m
4,952 ft1,509.37 m
Coordinates 32° 53' 21.92" N, 59° 17' 22.60" E
Runways
Designator Length Width Surface ROPS
8/26 2162 m7,093.176 ft
25 m82.021 ft
ASP /
10/28 2902 m9,520.997 ft
45 m147.638 ft
ASP /


METAR
Observation OIMB 231100Z 23023KT 2500 SA SCT035TCU BKN035 26/M03 Q1009
Station Birjand
Date/Time 23 April 2019 11:00:00
Wind direction 230°
Wind speed 23 kts
Lowest cloud amount scattered clouds
Temperature 26°C
Dew point
Humidity 14%
QNH 1009 hPa
Weather condition n/a

Airport 5km2.7 nm
5,000 m
16,404.199 ft
northeast of Birjand, in eastern Iran.

Climatology

Cold desert climate (Köppen climate classification BWk).

Maps

Terrain

Loading map...

Airport Layout

Loading map...


Accidents & Serious Incidents at or in vicinity of OIMB

None on SKYbrary